ENNO

Notodden Airport

Norway
METAR ENNO 171750Z VRB01KT CAVOK M11/M13 Q1013
Observed Flight Rules
Dec-17 @ 17:50 UTC (3 hours ago) Visual Flight Rules
Wind Visibility Clouds
Variable at 1 knots 10,000+ meters
  • Clear skies
Temperatures Readings
Current -11°C / 12°F
Dewpoint -13°C / 9°F
Humidity 85%
Altimeter 29.91" Hg
Pressure 1013 hPa
Elevation 19
METAR ENNO 171750Z VRB01KT CAVOK M11/M13 Q1013
Observed Flight Rules
Dec-17 @ 17:50 UTC
(3 hours ago)
VFR
Wind Visibility
Variable at 1 knots 10,000+ meters
Clouds
  • Clear skies
Temperature Dewpoint
-11°C / 12°F -13°C / 9°F
Humidity Altimeter Pressure
85% 29.91" Hg 1013 hPa